Latest Weather Observations for Warragul (Nilma North)

IDV60801

Issued at 7:22 am EDT Friday 21 January 2022 (issued every 10 minutes, with the page automatically refreshed every 10 minutes)

About weather observations | Map of weather stations | Latest weather observations for VIC | Other Formats
Station Details ID: 085313 Name: NILMA NORTH (WARRAGUL) Lat: -38.13 Lon: 145.99 Height: 134.11 m
Data from the previous 72 hours. | See also: Recent months for locations in Victoria
Date/Time
EDT
Temp
°C
App
Temp
°C
Dew
Point
°C
Rel
Hum
%
Delta-T
°C
Wind Press
QNH
hPa
Press
MSL
hPa
Rain since
9am
mm
Dir  Spd
km/h
Gust
km/h
Spd
kts
Gust
kts
21/07:00am 14.0 12.8 14.0 100 0.0 ESE 13 20 7 11 1028.3 1028.0 0.0
21/06:30am 13.7 13.2 13.7 100 0.0 ESE 9 13 5 7 1028.2 1027.9 0.0
21/06:00am 13.6 13.4 13.6 100 0.0 E 7 9 4 5 1028.0 1027.7 0.0
21/05:30am 13.8 12.9 13.8 100 0.0 E 11 20 6 11 1027.6 1027.3 0.0
21/05:00am 13.8 13.2 13.5 98 0.2 E 9 15 5 8 1027.5 1027.2 0.0
21/04:30am 14.0 12.7 13.7 98 0.2 E 13 22 7 12 1026.7 1026.3 0.0
21/04:00am 14.2 12.5 13.6 96 0.3 E 15 24 8 13 1026.7 1026.3 0.0
21/03:30am 14.3 12.5 13.3 94 0.6 E 15 26 8 14 1026.7 1026.3 0.0
21/03:00am 14.5 12.3 13.2 92 0.7 E 17 26 9 14 1026.8 1026.4 0.0
21/02:30am 14.7 11.5 13.2 91 0.8 E 22 33 12 18 1026.8 1026.4 0.0
21/02:00am 14.8 10.9 13.2 90 0.9 E 26 37 14 20 1026.6 1026.2 0.0
21/01:30am 14.8 12.0 13.2 90 0.9 E 20 32 11 17 1027.1 1026.7 0.0
21/01:00am 15.0 12.3 13.0 88 1.1 E 19 35 10 19 1027.2 1026.9 0.0
21/12:30am 15.2 11.9 12.9 86 1.3 E 22 39 12 21 1027.1 1026.7 0.0
21/12:00am 15.5 11.4 12.6 83 1.6 E 26 43 14 23 1026.9 1026.5 0.0
 
Date/Time
EDT
Temp
°C
App
Temp
°C
Dew
Point
°C
Rel
Hum
%
Delta-T
°C
Wind Press
QNH
hPa
Press
MSL
hPa
Rain since
9am
mm
Dir  Spd
km/h
Gust
km/h
Spd
kts
Gust
kts
20/11:47pm 15.7 11.2 12.6 82 1.7 E 28 48 15 26 1026.8 1026.4 0.0
20/11:30pm 15.9 10.6 12.6 81 1.8 E 32 46 17 25 1026.9 1026.5 0.0
20/11:00pm 16.1 11.6 12.7 80 1.9 E 28 46 15 25 1027.0 1026.6 0.0
20/10:35pm 16.4 11.0 12.9 80 2.0 E 33 52 18 28 1027.3 1027.0 0.0
20/10:30pm 16.4 11.0 12.9 80 2.0 E 33 44 18 24 1027.3 1027.0 0.0
20/10:01pm 16.7 11.4 13.0 79 2.1 E 33 54 18 29 1027.4 1027.1 0.0
20/10:00pm 16.7 11.4 13.0 79 2.1 E 33 50 18 27 1027.4 1027.1 0.0
20/09:57pm 16.7 11.6 13.0 79 2.1 E 32 50 17 27 1027.4 1027.1 0.0
20/09:30pm 16.9 11.6 13.0 78 2.2 E 33 50 18 27 1027.2 1026.9 0.0
20/09:01pm 17.3 12.0 12.4 73 2.7 E 32 52 17 28 1026.8 1026.4 0.0
20/09:00pm 17.3 11.8 12.4 73 2.7 E 33 52 18 28 1026.8 1026.4 0.0
20/08:30pm 17.9 12.0 12.4 70 3.1 E 35 54 19 29 1026.5 1026.1 0.0
20/08:00pm 18.9 13.4 11.9 64 3.9 E 32 50 17 27 1026.3 1025.9 0.0
20/07:30pm 19.5 14.0 11.8 61 4.3 E 32 54 17 29 1026.1 1025.7 0.0
20/07:00pm 20.8 14.3 11.7 56 5.1 E 37 57 20 31 1025.7 1025.3 0.0
20/06:40pm 21.6 15.8 11.6 53 5.6 E 33 52 18 28 1025.5 1025.1 0.0
20/06:30pm 21.9 16.2 11.9 53 5.6 ESE 33 48 18 26 1025.5 1025.1 0.0
20/06:00pm 22.4 16.8 12.1 52 5.8 ESE 33 50 18 27 1025.5 1025.1 0.0
20/05:39pm 23.0 18.4 12.3 51 6.1 E 28 46 15 25 1025.7 1025.3 0.0
20/05:30pm 22.8 17.7 11.8 50 6.2 ESE 30 48 16 26 1025.8 1025.4 0.0
20/05:26pm 23.0 18.3 12.0 50 6.3 ESE 28 46 15 25 1025.7 1025.3 0.0
20/05:00pm 23.0 17.8 11.7 49 6.4 ESE 30 46 16 25 1026.1 1025.7 0.0
20/04:30pm 23.4 18.2 11.5 47 6.7 E 30 46 16 25 1026.3 1025.9 0.0
20/04:23pm 23.8 18.7 11.8 47 6.8 E 30 50 16 27 1026.4 1026.0 0.0
20/04:00pm 23.7 18.8 11.4 46 6.9 E 28 46 15 25 1026.7 1026.3 0.0
20/03:30pm 23.6 17.7 10.6 44 7.2 E 32 50 17 27 1027.0 1026.6 0.0
20/03:00pm 23.0 17.2 10.8 46 6.8 E 32 52 17 28 1027.2 1026.9 0.0
20/02:40pm 23.2 18.0 11.6 48 6.6 E 30 48 16 26 1027.5 1027.2 0.0
20/02:30pm 22.9 17.0 11.3 48 6.5 E 33 48 18 26 1027.5 1027.2 0.0
20/02:10pm 23.1 17.2 11.2 47 6.7 ESE 33 52 18 28 1027.5 1027.2 0.0
20/02:00pm 22.6 16.7 11.0 48 6.4 ESE 33 50 18 27 1027.4 1027.1 0.0
20/01:30pm 22.5 16.0 10.3 46 6.7 E 35 61 19 33 1027.5 1027.2 0.0
20/01:05pm 22.7 16.6 9.8 44 7.0 E 32 50 17 27 1028.0 1027.7 0.0
20/01:00pm 22.6 16.5 9.7 44 7.0 E 32 44 17 24 1028.1 1027.8 0.0
20/12:30pm 22.1 15.4 9.6 45 6.8 E 35 61 19 33 1028.3 1028.0 0.0
20/12:24pm 22.0 15.3 9.5 45 6.8 E 35 59 19 32 1028.1 1027.8 0.0
20/12:00pm 21.6 15.4 9.2 45 6.6 E 32 48 17 26 1028.4 1028.1 0.0
20/11:42am 21.1 14.2 9.0 46 6.5 E 35 56 19 30 1028.4 1028.1 0.0
20/11:30am 21.1 14.3 9.4 47 6.3 E 35 50 19 27 1028.5 1028.2 0.0
20/11:09am 21.2 15.1 9.8 48 6.2 ESE 32 50 17 27 1028.7 1028.4 0.0
20/11:00am 20.6 14.2 9.5 49 5.9 E 33 50 18 27 1028.7 1028.4 0.0
20/10:30am 20.1 14.4 9.7 51 5.6 E 30 50 16 27 1028.5 1028.2 0.0
20/10:10am 20.1 14.8 9.7 51 5.6 E 28 46 15 25 1028.4 1028.1 0.0
20/10:00am 20.1 15.3 10.2 53 5.3 E 26 43 14 23 1028.4 1028.1 0.0
20/09:30am 19.0 12.4 10.0 56 4.8 E 35 57 19 31 1028.1 1027.8 0.0
20/09:01am 18.6 12.5 9.9 57 4.7 E 32 50 17 27 1027.9 1027.6 0.0
20/09:00am 18.7 13.1 10.3 58 4.5 E 30 46 16 25 1028.0 1027.7 0.0
20/08:30am 17.7 11.2 10.3 62 4.0 E 35 56 19 30 1027.7 1027.4 0.0
20/08:00am 16.8 11.7 11.9 73 2.7 E 30 50 16 27 1027.6 1027.3 0.0
20/07:58am 16.6 11.4 11.5 72 2.8 E 30 50 16 27 1027.6 1027.3 0.0
20/07:30am 15.7 12.0 12.6 82 1.7 E 24 41 13 22 1027.8 1027.5 0.0
20/07:00am 14.6 11.8 13.1 91 0.8 E 20 37 11 20 1028.0 1027.7 0.0
20/06:30am 13.9 11.0 13.0 94 0.5 ESE 20 32 11 17 1027.7 1027.4 0.0
20/06:00am 14.0 10.7 12.9 93 0.6 ESE 22 33 12 18 1027.6 1027.3 0.0
20/05:30am 14.1 11.2 12.8 92 0.7 ESE 20 30 11 16 1027.4 1027.1 0.0
20/05:00am 13.9 11.0 13.0 94 0.5 ESE 20 37 11 20 1027.3 1027.0 0.0
20/04:30am 14.1 11.3 13.3 95 0.4 ESE 20 30 11 16 1027.0 1026.6 0.0
20/04:00am 14.6 11.8 13.1 91 0.8 ESE 20 30 11 16 1027.0 1026.6 0.0
20/03:30am 15.0 11.9 13.5 91 0.8 ESE 22 32 12 17 1027.1 1026.7 0.0
20/03:00am 15.2 11.8 13.7 91 0.8 ESE 24 35 13 19 1027.5 1027.2 0.0
20/02:30am 15.6 11.8 13.6 88 1.1 ESE 26 39 14 21 1027.8 1027.5 0.0
20/02:00am 15.6 12.9 13.4 87 1.2 ESE 20 30 11 16 1027.9 1027.6 0.0
20/01:30am 15.5 12.5 13.7 89 1.0 ESE 22 30 12 16 1028.0 1027.7 0.0
20/01:00am 15.3 12.3 13.7 90 0.9 ESE 22 35 12 19 1028.0 1027.7 0.0
20/12:30am 15.4 12.0 13.6 89 1.0 ESE 24 35 13 19 1028.0 1027.7 0.0
20/12:00am 15.3 11.8 13.5 89 1.0 ESE 24 35 13 19 1027.8 1027.5 0.0
 
Date/Time
EDT
Temp
°C
App
Temp
°C
Dew
Point
°C
Rel
Hum
%
Delta-T
°C
Wind Press
QNH
hPa
Press
MSL
hPa
Rain since
9am
mm
Dir  Spd
km/h
Gust
km/h
Spd
kts
Gust
kts
19/11:30pm 15.6 12.1 13.3 86 1.3 E 24 37 13 20 1027.5 1027.2 0.0
19/11:00pm 15.9 12.8 13.4 85 1.4 E 22 37 12 20 1027.4 1027.1 0.0
19/10:30pm 16.1 12.2 13.2 83 1.6 E 26 43 14 23 1027.1 1026.7 0.0
19/10:00pm 16.2 12.5 12.7 80 1.9 E 24 43 13 23 1026.9 1026.5 0.0
19/09:30pm 16.2 12.6 12.0 76 2.3 E 22 39 12 21 1026.7 1026.3 0.0
19/09:00pm 16.8 12.9 12.1 74 2.6 E 24 43 13 23 1026.5 1026.1 0.0
19/08:43pm 17.1 12.3 11.6 70 3.0 E 28 50 15 27 1026.2 1025.8 0.0
19/08:30pm 17.4 12.5 11.4 68 3.3 E 28 41 15 22 1026.1 1025.7 0.0
19/08:12pm 18.0 13.0 11.1 64 3.8 E 28 48 15 26 1025.9 1025.5 0.0
19/08:00pm 18.0 12.5 10.6 62 4.0 E 30 43 16 23 1025.8 1025.4 0.0
19/07:30pm 18.8 12.9 10.4 58 4.5 E 32 50 17 27 1025.4 1025.0 0.0
19/07:00pm 19.1 13.7 10.9 59 4.5 E 30 54 16 29 1025.3 1024.9 0.0
19/06:48pm 19.2 14.1 10.5 57 4.7 E 28 50 15 27 1025.2 1024.8 0.0
19/06:30pm 19.8 14.0 10.8 56 4.9 E 32 48 17 26 1025.1 1024.7 0.0
19/06:17pm 19.6 13.8 10.9 57 4.8 E 32 54 17 29 1024.9 1024.5 0.0
19/06:00pm 19.8 13.8 10.8 56 4.9 E 33 52 18 28 1024.9 1024.5 0.0
19/05:30pm 19.5 13.3 11.3 59 4.5 E 35 54 19 29 1025.0 1024.6 0.0
19/05:00pm 19.8 13.5 11.0 57 4.8 E 35 57 19 31 1024.8 1024.4 0.0
19/04:30pm 20.0 13.7 11.2 57 4.9 E 35 56 19 30 1024.8 1024.4 0.0
19/04:01pm 20.5 15.2 11.2 55 5.1 E 30 52 16 28 1024.7 1024.3 0.0
19/04:00pm 20.8 15.5 11.4 55 5.2 E 30 48 16 26 1024.7 1024.3 0.0
19/03:34pm 20.7 14.8 11.3 55 5.2 E 33 52 18 28 1024.7 1024.3 0.0
19/03:30pm 21.1 14.8 11.2 53 5.5 E 35 52 19 28 1024.6 1024.2 0.0
19/03:00pm 21.1 15.5 11.4 54 5.4 E 32 54 17 29 1024.6 1024.2 0.0
19/02:43pm 22.0 17.1 12.5 54 5.4 E 30 48 16 26 1024.7 1024.3 0.0
19/02:30pm 20.5 14.4 11.7 57 4.9 E 35 50 19 27 1024.7 1024.3 0.0
19/02:00pm 20.0 13.8 11.5 58 4.7 E 35 57 19 31 1024.7 1024.3 0.0
19/01:40pm 19.8 14.8 12.3 62 4.2 E 30 50 16 27 1024.9 1024.5 0.0
19/01:30pm 19.9 14.7 12.7 63 4.1 E 32 48 17 26 1024.8 1024.4 0.0
19/01:00pm 20.7 15.6 13.2 62 4.3 E 32 52 17 28 1024.6 1024.2 0.0
19/12:30pm 19.7 14.5 12.9 65 3.9 E 32 52 17 28 1024.6 1024.2 0.0
19/12:08pm 20.6 16.4 14.7 69 3.5 E 30 48 16 26 1024.5 1024.1 0.0
19/12:00pm 19.8 15.2 13.5 67 3.6 E 30 48 16 26 1024.4 1024.0 0.0
19/11:30am 19.5 13.5 13.2 67 3.6 E 37 56 20 30 1024.4 1024.0 0.0
19/11:21am 20.1 15.1 13.3 65 3.9 E 32 56 17 30 1024.3 1023.9 0.0
19/11:00am 19.4 14.5 13.6 69 3.3 E 32 50 17 27 1024.4 1024.0 0.0
19/10:34am 19.8 15.6 14.6 72 3.0 E 30 48 16 26 1024.4 1024.0 0.0
19/10:30am 19.0 14.3 14.3 74 2.7 E 32 48 17 26 1024.4 1024.0 0.0
19/10:00am 18.3 13.7 13.6 74 2.7 E 30 50 16 27 1024.0 1023.6 0.0
19/09:32am 17.5 13.7 14.8 84 1.6 E 28 46 15 25 1023.8 1023.4 0.0
19/09:30am 17.3 14.3 14.8 85 1.5 E 24 39 13 21 1023.8 1023.4 0.0
19/09:00am 17.6 13.8 14.7 83 1.7 E 28 46 15 25 1023.4 1023.0 0.0
19/08:44am 17.4 13.1 14.3 82 1.8 E 30 50 16 27 1023.0 1022.6 0.0
19/08:30am 17.0 13.5 14.6 86 1.4 E 26 43 14 23 1022.7 1022.3 0.0
19/08:00am 16.4 13.6 14.4 88 1.1 E 22 41 12 22 1022.4 1022.0 0.0
19/07:30am 16.3 14.2 14.7 90 0.9 E 19 37 10 20 1021.5 1021.1 0.0
19/07:00am 15.9 12.8 14.6 92 0.7 E 24 39 13 21 1020.9 1020.6 0.0
19/06:30am 15.5 13.3 14.5 94 0.6 E 19 32 10 17 1020.6 1020.2 0.0
19/06:00am 15.1 12.8 14.1 94 0.6 E 19 33 10 18 1020.2 1019.8 0.0
19/05:30am 15.2 12.6 13.9 92 0.7 ESE 20 33 11 18 1019.8 1019.4 0.0
19/05:00am 15.2 12.8 13.7 91 0.8 ESE 19 28 10 15 1019.5 1019.1 0.0
19/04:30am 14.5 12.5 14.0 97 0.3 ESE 17 26 9 14 1019.4 1019.0 0.0
19/04:00am 14.5 12.9 13.9 96 0.3 ESE 15 24 8 13 1018.9 1018.5 0.0
19/03:30am 14.8 13.5 13.7 93 0.6 ESE 13 19 7 10 1018.9 1018.5 0.0
19/03:00am 14.5 13.0 13.2 92 0.7 ESE 13 20 7 11 1018.8 1018.4 0.0
19/02:30am 14.1 12.9 12.7 91 0.8 ESE 11 15 6 8 1018.9 1018.5 0.0
19/02:00am 13.8 12.4 12.2 90 0.9 ESE 11 17 6 9 1019.2 1018.8 0.0
19/01:30am 12.8 12.0 11.7 93 0.6 ESE 7 11 4 6 1019.4 1019.0 0.0
19/01:00am 12.6 11.7 11.5 93 0.6 ESE 7 11 4 6 1019.3 1018.9 0.0
19/12:30am 12.6 11.9 11.5 93 0.6 ESE 6 9 3 5 1019.1 1018.7 0.0
19/12:00am 13.7 13.1 11.6 87 1.1 ESE 6 9 3 5 1019.3 1018.9 0.0
 
Date/Time
EDT
Temp
°C
App
Temp
°C
Dew
Point
°C
Rel
Hum
%
Delta-T
°C
Wind Press
QNH
hPa
Press
MSL
hPa
Rain since
9am
mm
Dir  Spd
km/h
Gust
km/h
Spd
kts
Gust
kts
18/11:30pm 13.5 13.5 11.2 86 1.2 SE 2 4 1 2 1019.3 1018.9 0.0
18/11:00pm 13.6 13.6 11.3 86 1.2 SE 2 2 1 1 1019.4 1019.0 0.0
18/10:30pm 13.7 13.9 10.5 81 1.7 CALM 0 4 0 2 1019.3 1018.9 0.0
18/10:00pm 14.4 13.7 10.2 76 2.2 SE 4 6 2 3 1019.1 1018.7 0.0
18/09:30pm 14.8 14.0 9.8 72 2.6 SE 4 6 2 3 1018.9 1018.5 0.0
18/09:00pm 15.4 14.7 10.0 70 2.8 SSW 4 9 2 5 1018.4 1018.0 0.0
18/08:30pm 16.6 14.9 10.0 65 3.5 SSW 9 15 5 8 1018.0 1017.6 0.0
18/08:00pm 17.4 16.3 10.5 64 3.7 S 7 17 4 9 1017.6 1017.2 0.0
18/07:30pm 17.9 15.8 9.8 59 4.3 SSW 11 20 6 11 1016.9 1016.5 0.0
18/07:00pm 18.1 15.7 10.2 60 4.2 S 13 19 7 10 1016.9 1016.5 0.0
18/06:30pm 18.6 15.7 9.7 56 4.7 SSE 15 20 8 11 1016.6 1016.2 0.0
18/06:00pm 20.2 17.6 9.2 49 5.9 S 13 20 7 11 1016.4 1016.0 0.0
18/05:30pm 18.5 15.9 10.6 60 4.3 S 15 24 8 13 1016.4 1016.0 0.0
18/05:00pm 21.0 18.3 10.5 51 5.7 SSW 15 24 8 13 1016.5 1016.1 0.0
18/04:30pm 20.1 17.4 8.8 48 6.0 S 13 24 7 13 1016.4 1016.0 0.0
18/04:00pm 20.3 18.0 10.4 53 5.4 S 13 17 7 9 1016.5 1016.1 0.0
18/03:30pm 20.3 18.3 10.1 52 5.5 SSW 11 17 6 9 1016.5 1016.1 0.0
18/03:00pm 20.5 18.2 9.1 48 6.1 S 11 17 6 9 1016.4 1016.0 0.0
18/02:30pm 19.6 17.4 9.2 51 5.5 SSW 11 17 6 9 1016.6 1016.2 0.0
18/02:00pm 19.7 17.9 9.6 52 5.4 SSW 9 17 5 9 1016.6 1016.2 0.0
18/01:30pm 20.3 18.1 9.5 50 5.8 SSW 11 20 6 11 1016.7 1016.3 0.0
18/01:00pm 20.5 19.4 10.0 51 5.7 WSW 6 13 3 7 1016.7 1016.3 0.0
18/12:30pm 19.3 17.4 9.2 52 5.4 S 9 19 5 10 1016.9 1016.5 0.0
18/12:00pm 19.1 18.0 10.1 56 4.8 SW 6 11 3 6 1016.9 1016.5 0.0
18/11:30am 18.8 17.1 8.5 51 5.4 S 7 17 4 9 1017.2 1016.8 0.0
18/11:00am 19.0 17.7 9.2 53 5.2 W 6 11 3 6 1017.3 1016.9 0.0
18/10:30am 18.6 17.3 9.1 54 5.0 SSE 6 9 3 5 1017.1 1016.7 0.0
18/10:00am 17.6 16.9 11.4 67 3.4 S 6 11 3 6 1017.1 1016.7 0.0
18/09:30am 17.2 16.7 10.8 66 3.5 S 4 7 2 4 1016.9 1016.5 0.0
18/09:00am 16.3 15.3 10.4 68 3.1 SSW 6 9 3 5 1016.8 1016.4 0.0
18/08:30am 16.0 16.0 11.2 73 2.6 WNW 2 4 1 2 1016.7 1016.3 0.0
18/08:00am 15.4 15.4 11.2 76 2.3 NW 2 4 1 2 1016.5 1016.1 0.0
18/07:30am 14.9 15.5 12.0 83 1.6 CALM 0 4 0 2 1016.2 1015.8 0.0

Other formats

Comma delimited format used in spreadsheet applications
http://www.bom.gov.au/fwo/IDV60801/IDV60801.99806.axf

JavaScript Object Notation format (JSON) in row-major order
http://www.bom.gov.au/fwo/IDV60801/IDV60801.99806.json

Data quality

Most of these data are generated automatically and are frequently updated. Quality checks on data are not normally performed. It is possible for incorrect values to appear. Refer to information at About Latest Weather Observations and please check the disclaimer before using these data.